Time;durP1;ratioP1;P1;durP2;ratioP2;P2;SDS_P1;SDS_P2;PMS_P1;PMS_P2;Temp;Humidity;BMP_temperature;BMP_pressure;BME280_temperature;BME280_humidity;BME280_pressure;Samples;Min_cycle;Max_cycle;Signal;HPM_P1;HPM_P2
2024/01/29 00:02:17;;;;;;;11.13;5.53;;;;;;;;;;5033551;28;20487;-78
2024/01/29 00:04:43;;;;;;;9.15;5.03;;;;;;;;;;5033600;28;20107;-79
2024/01/29 00:07:10;;;;;;;7.60;4.78;;;;;;;;;;5034407;28;20045;-79
2024/01/29 00:09:36;;;;;;;9.65;5.30;;;;;;;;;;5034017;28;20058;-79
2024/01/29 00:12:02;;;;;;;9.75;5.25;;;;;;;;;;5033581;28;20037;-78
2024/01/29 00:14:28;;;;;;;8.57;4.88;;;;;;;;;;5016451;28;20399;-79
2024/01/29 00:16:54;;;;;;;9.98;4.97;;;;;;;;;;5032259;28;20109;-79
2024/01/29 00:19:20;;;;;;;9.27;5.32;;;;;;;;;;5031309;28;20049;-79
2024/01/29 00:21:46;;;;;;;10.82;5.07;;;;;;;;;;5033760;28;20045;-79
2024/01/29 00:24:12;;;;;;;10.23;5.00;;;;;;;;;;5028219;28;20048;-79
2024/01/29 00:26:39;;;;;;;9.65;5.15;;;;;;;;;;5031671;28;20407;-79
2024/01/29 00:29:05;;;;;;;12.10;5.55;;;;;;;;;;5032805;28;20041;-78
2024/01/29 00:31:31;;;;;;;9.35;5.10;;;;;;;;;;5033495;28;20049;-79
2024/01/29 00:33:58;;;;;;;8.93;4.82;;;;;;;;;;5032403;28;20037;-78
2024/01/29 00:36:24;;;;;;;8.93;4.82;;;;;;;;;;5022403;28;20038;-79
2024/01/29 00:38:50;;;;;;;8.93;5.05;;;;;;;;;;5031736;28;20048;-78
2024/01/29 00:41:16;;;;;;;7.93;4.90;;;;;;;;;;5036261;28;20054;-78
2024/01/29 00:43:43;;;;;;;8.13;4.85;;;;;;;;;;5037583;28;20410;-78
2024/01/29 00:46:09;;;;;;;7.68;4.80;;;;;;;;;;5017111;28;20056;-79
2024/01/29 00:48:35;;;;;;;8.10;4.95;;;;;;;;;;5031075;28;20049;-79
2024/01/29 00:51:01;;;;;;;9.32;4.55;;;;;;;;;;5029961;28;20049;-79
2024/01/29 00:53:27;;;;;;;8.63;4.90;;;;;;;;;;5031376;28;20050;-79
2024/01/29 00:55:53;;;;;;;10.43;5.05;;;;;;;;;;5035484;28;20044;-79
2024/01/29 00:58:20;;;;;;;8.05;4.95;;;;;;;;;;5036480;28;20129;-79
2024/01/29 01:00:47;;;;;;;8.23;4.82;;;;;;;;;;5036197;28;20128;-79
2024/01/29 01:03:14;;;;;;;9.13;4.80;;;;;;;;;;5036317;28;20060;-79
2024/01/29 01:05:40;;;;;;;7.60;4.50;;;;;;;;;;5036192;28;20056;-78
2024/01/29 01:08:06;;;;;;;9.73;4.88;;;;;;;;;;5035833;28;20053;-78
2024/01/29 01:10:32;;;;;;;9.50;5.00;;;;;;;;;;5035850;28;20057;-79
2024/01/29 01:12:58;;;;;;;9.77;4.80;;;;;;;;;;5035681;28;20088;-79
2024/01/29 01:15:25;;;;;;;8.63;4.38;;;;;;;;;;5036143;28;20050;-78
2024/01/29 01:17:51;;;;;;;9.27;4.95;;;;;;;;;;5035754;28;20407;-79
2024/01/29 01:20:17;;;;;;;8.18;4.68;;;;;;;;;;5035908;28;20049;-79
2024/01/29 01:22:43;;;;;;;9.00;4.72;;;;;;;;;;5035358;28;20053;-78
2024/01/29 01:25:09;;;;;;;8.57;4.55;;;;;;;;;;5035518;28;20095;-79
2024/01/29 01:27:35;;;;;;;8.57;5.10;;;;;;;;;;5034802;28;20072;-79
2024/01/29 01:30:01;;;;;;;8.60;4.85;;;;;;;;;;5035409;28;20528;-78
2024/01/29 01:32:27;;;;;;;8.18;4.53;;;;;;;;;;5034724;28;20568;-79
2024/01/29 01:34:53;;;;;;;10.10;4.55;;;;;;;;;;5034761;28;20388;-78
2024/01/29 01:37:19;;;;;;;8.10;4.68;;;;;;;;;;5034151;28;20054;-79
2024/01/29 01:39:45;;;;;;;8.32;4.85;;;;;;;;;;5032250;28;20045;-80
2024/01/29 01:42:12;;;;;;;8.93;4.70;;;;;;;;;;5023695;28;20080;-79
2024/01/29 01:44:38;;;;;;;9.88;4.70;;;;;;;;;;5025320;28;20037;-79
2024/01/29 01:47:04;;;;;;;8.48;4.93;;;;;;;;;;5034436;28;20041;-79
2024/01/29 01:49:30;;;;;;;10.07;5.28;;;;;;;;;;5033792;28;20127;-79
2024/01/29 01:51:56;;;;;;;9.20;5.18;;;;;;;;;;5016544;28;20054;-79
2024/01/29 01:54:23;;;;;;;10.38;5.30;;;;;;;;;;5026408;28;20431;-80
2024/01/29 01:56:49;;;;;;;10.02;5.50;;;;;;;;;;5037470;28;20164;-78
2024/01/29 01:59:15;;;;;;;9.52;6.00;;;;;;;;;;5030188;28;20050;-78
2024/01/29 02:01:42;;;;;;;10.02;5.53;;;;;;;;;;5024439;28;20431;-78
2024/01/29 02:04:08;;;;;;;9.73;5.25;;;;;;;;;;5034579;28;20041;-79
2024/01/29 02:06:35;;;;;;;9.70;5.53;;;;;;;;;;5034652;28;20052;-78
2024/01/29 02:09:01;;;;;;;9.45;5.78;;;;;;;;;;5035152;28;20112;-78
2024/01/29 02:11:27;;;;;;;11.15;6.03;;;;;;;;;;5034603;28;20102;-78
2024/01/29 02:13:53;;;;;;;11.63;5.90;;;;;;;;;;5034437;28;20045;-79
2024/01/29 02:16:19;;;;;;;9.90;5.65;;;;;;;;;;5034975;28;20060;-78
2024/01/29 02:18:45;;;;;;;8.75;5.03;;;;;;;;;;5031840;28;20541;-79
2024/01/29 02:21:11;;;;;;;9.93;5.47;;;;;;;;;;5034546;28;20049;-79
2024/01/29 02:23:37;;;;;;;9.63;5.80;;;;;;;;;;5034308;28;20053;-78
2024/01/29 02:26:03;;;;;;;11.60;5.43;;;;;;;;;;5033790;28;20045;-78
2024/01/29 02:28:29;;;;;;;8.93;5.30;;;;;;;;;;5033652;28;20041;-79
2024/01/29 02:30:55;;;;;;;8.77;5.32;;;;;;;;;;5033831;28;20091;-78
2024/01/29 02:33:21;;;;;;;11.15;5.13;;;;;;;;;;5032547;28;20041;-79
2024/01/29 02:35:47;;;;;;;10.32;5.75;;;;;;;;;;5034365;28;20053;-78
2024/01/29 02:38:13;;;;;;;10.13;5.38;;;;;;;;;;5015216;28;20064;-78
2024/01/29 02:40:40;;;;;;;9.55;5.22;;;;;;;;;;5033588;28;20076;-78
2024/01/29 02:43:06;;;;;;;11.13;5.68;;;;;;;;;;5016043;28;20049;-79
2024/01/29 02:45:32;;;;;;;10.27;5.28;;;;;;;;;;5020183;28;20099;-78
2024/01/29 02:47:58;;;;;;;9.60;5.20;;;;;;;;;;5022718;28;20052;-78
2024/01/29 02:50:25;;;;;;;9.30;4.82;;;;;;;;;;5007548;28;20037;-78
2024/01/29 02:52:51;;;;;;;10.35;5.55;;;;;;;;;;5012897;28;20045;-79
2024/01/29 02:55:18;;;;;;;7.85;4.50;;;;;;;;;;5030234;28;20051;-79
2024/01/29 02:57:44;;;;;;;9.98;4.43;;;;;;;;;;4995728;28;20049;-79
2024/01/29 03:00:10;;;;;;;12.85;5.00;;;;;;;;;;5032255;28;20049;-79
2024/01/29 03:02:36;;;;;;;8.77;4.82;;;;;;;;;;5032517;28;20128;-79
2024/01/29 03:05:03;;;;;;;9.88;4.80;;;;;;;;;;5033394;28;20151;-78
2024/01/29 03:07:29;;;;;;;11.18;5.10;;;;;;;;;;5033348;28;20056;-78
2024/01/29 03:09:55;;;;;;;11.48;5.15;;;;;;;;;;5005347;28;20057;-79
2024/01/29 03:12:21;;;;;;;9.50;5.38;;;;;;;;;;5033618;28;20045;-78
2024/01/29 03:14:47;;;;;;;7.57;4.20;;;;;;;;;;5032999;28;20053;-79
2024/01/29 03:17:14;;;;;;;9.50;4.35;;;;;;;;;;5033499;28;20064;-78
2024/01/29 03:19:40;;;;;;;11.93;4.95;;;;;;;;;;5033253;28;20042;-79
2024/01/29 03:22:07;;;;;;;8.43;4.25;;;;;;;;;;5031186;28;20337;-79
2024/01/29 03:24:33;;;;;;;8.02;4.55;;;;;;;;;;5015626;28;20053;-79
2024/01/29 03:26:59;;;;;;;7.70;4.53;;;;;;;;;;5031972;28;20052;-79
2024/01/29 03:29:25;;;;;;;9.05;4.75;;;;;;;;;;5015024;28;20107;-79
2024/01/29 03:31:51;;;;;;;9.88;4.55;;;;;;;;;;5032889;28;20045;-79
2024/01/29 03:34:17;;;;;;;9.82;4.78;;;;;;;;;;5033188;28;20407;-79
2024/01/29 03:36:44;;;;;;;9.57;4.57;;;;;;;;;;5033031;28;20045;-78
2024/01/29 03:39:10;;;;;;;8.60;4.70;;;;;;;;;;5025013;28;20469;-78
2024/01/29 03:41:36;;;;;;;10.48;4.78;;;;;;;;;;5032737;28;20503;-79
2024/01/29 03:44:02;;;;;;;8.77;4.90;;;;;;;;;;5014099;28;20081;-79
2024/01/29 03:46:28;;;;;;;8.85;4.68;;;;;;;;;;5032931;28;20045;-78
2024/01/29 03:48:54;;;;;;;9.27;4.68;;;;;;;;;;5032026;28;20107;-79
2024/01/29 03:51:21;;;;;;;10.20;4.85;;;;;;;;;;5030839;28;20045;-79
2024/01/29 03:53:47;;;;;;;8.63;4.78;;;;;;;;;;5032353;28;20411;-79
2024/01/29 03:56:15;;;;;;;9.27;4.95;;;;;;;;;;5032409;28;20045;-78
2024/01/29 03:58:41;;;;;;;8.30;4.43;;;;;;;;;;5027501;28;20091;-79
2024/01/29 04:01:08;;;;;;;8.30;4.63;;;;;;;;;;5025989;28;20121;-78
2024/01/29 04:03:34;;;;;;;10.60;4.97;;;;;;;;;;5018469;28;20099;-78
2024/01/29 04:06:00;;;;;;;8.88;4.40;;;;;;;;;;5032495;28;20049;-79
2024/01/29 04:08:26;;;;;;;9.48;5.38;;;;;;;;;;5031262;28;20045;-78
2024/01/29 04:10:52;;;;;;;9.55;4.50;;;;;;;;;;5031306;28;20050;-78
2024/01/29 04:13:18;;;;;;;9.52;5.00;;;;;;;;;;5030090;28;20038;-79
2024/01/29 04:15:44;;;;;;;10.25;5.00;;;;;;;;;;5036261;28;20082;-79
2024/01/29 04:18:10;;;;;;;8.75;4.88;;;;;;;;;;5035833;28;20049;-79
2024/01/29 04:20:36;;;;;;;9.32;4.75;;;;;;;;;;5034203;28;20045;-78
2024/01/29 04:23:02;;;;;;;10.77;5.22;;;;;;;;;;5031477;28;20042;-80
2024/01/29 04:25:29;;;;;;;10.20;4.95;;;;;;;;;;5034667;28;20119;-79
2024/01/29 04:27:55;;;;;;;10.60;4.63;;;;;;;;;;5036293;28;20124;-78
2024/01/29 04:30:21;;;;;;;9.75;4.95;;;;;;;;;;5034996;28;20045;-78
2024/01/29 04:32:47;;;;;;;9.00;5.13;;;;;;;;;;5035302;28;20041;-79
2024/01/29 04:35:13;;;;;;;8.73;5.10;;;;;;;;;;5032487;28;20410;-78
2024/01/29 04:37:40;;;;;;;8.20;4.70;;;;;;;;;;5035433;28;20065;-78
2024/01/29 04:40:07;;;;;;;9.25;4.93;;;;;;;;;;5033202;28;20076;-79
2024/01/29 04:42:33;;;;;;;9.05;5.10;;;;;;;;;;5001469;28;20045;-78
2024/01/29 04:44:59;;;;;;;9.48;5.25;;;;;;;;;;5036170;28;20044;-79
2024/01/29 04:47:26;;;;;;;9.30;5.20;;;;;;;;;;5034609;28;20041;-79
2024/01/29 04:49:52;;;;;;;9.13;4.97;;;;;;;;;;5034928;28;20497;-79
2024/01/29 04:52:18;;;;;;;9.02;4.95;;;;;;;;;;5034169;28;20049;-79
2024/01/29 04:54:44;;;;;;;12.18;5.47;;;;;;;;;;5023552;28;20072;-79
2024/01/29 04:57:10;;;;;;;10.00;4.90;;;;;;;;;;5033969;28;20042;-79
2024/01/29 04:59:36;;;;;;;9.52;5.20;;;;;;;;;;5030660;28;20466;-79
2024/01/29 05:02:02;;;;;;;9.52;5.05;;;;;;;;;;5035419;28;20092;-79
2024/01/29 05:04:29;;;;;;;11.38;5.47;;;;;;;;;;5035655;28;20091;-78
2024/01/29 05:06:55;;;;;;;9.40;4.82;;;;;;;;;;5035450;28;20049;-78
2024/01/29 05:09:21;;;;;;;9.20;5.65;;;;;;;;;;5031886;28;20410;-78
2024/01/29 05:11:47;;;;;;;10.50;5.45;;;;;;;;;;5035312;28;20479;-78
2024/01/29 05:14:13;;;;;;;10.48;5.20;;;;;;;;;;5035172;28;20514;-79
2024/01/29 05:16:39;;;;;;;10.50;5.07;;;;;;;;;;5035116;28;20495;-79
2024/01/29 05:19:05;;;;;;;9.75;5.05;;;;;;;;;;5035162;28;20033;-79
2024/01/29 05:21:31;;;;;;;8.52;4.82;;;;;;;;;;5035586;28;20044;-79
2024/01/29 05:23:57;;;;;;;8.40;5.22;;;;;;;;;;5034972;28;20517;-78
2024/01/29 05:26:23;;;;;;;9.60;5.53;;;;;;;;;;5016125;28;20407;-79
2024/01/29 05:28:50;;;;;;;10.18;5.55;;;;;;;;;;5037809;28;20514;-79
2024/01/29 05:31:16;;;;;;;10.70;5.35;;;;;;;;;;5034759;28;20049;-78
2024/01/29 05:33:42;;;;;;;8.85;5.40;;;;;;;;;;5034696;28;20080;-78
2024/01/29 05:36:08;;;;;;;9.55;5.65;;;;;;;;;;5021320;28;20050;-78
2024/01/29 05:38:35;;;;;;;10.93;5.95;;;;;;;;;;5022069;28;20128;-79
2024/01/29 05:41:01;;;;;;;9.68;5.50;;;;;;;;;;5033793;28;20058;-79
2024/01/29 05:43:27;;;;;;;10.73;5.63;;;;;;;;;;5026732;28;20056;-79
2024/01/29 05:45:53;;;;;;;11.32;5.72;;;;;;;;;;5031341;28;20534;-79
2024/01/29 05:48:19;;;;;;;10.88;5.63;;;;;;;;;;5016163;28;20052;-79
2024/01/29 05:50:45;;;;;;;10.63;5.55;;;;;;;;;;5018425;28;20053;-79
2024/01/29 05:53:11;;;;;;;8.63;5.38;;;;;;;;;;5015954;28;20426;-79
2024/01/29 05:55:37;;;;;;;10.70;5.57;;;;;;;;;;5031812;28;20038;-79
2024/01/29 05:58:03;;;;;;;11.13;5.68;;;;;;;;;;5033942;28;20049;-79
2024/01/29 06:00:30;;;;;;;7.50;5.15;;;;;;;;;;5016563;28;20208;-78
2024/01/29 06:02:56;;;;;;;11.63;5.63;;;;;;;;;;5033955;28;20041;-78
2024/01/29 06:05:22;;;;;;;10.95;5.70;;;;;;;;;;5033701;28;20041;-79
2024/01/29 06:07:48;;;;;;;9.20;5.32;;;;;;;;;;5031701;28;20056;-78
2024/01/29 06:10:15;;;;;;;12.00;5.35;;;;;;;;;;5027503;28;20064;-78
2024/01/29 06:12:41;;;;;;;9.95;5.93;;;;;;;;;;5026928;28;20127;-78
2024/01/29 06:15:07;;;;;;;10.80;5.82;;;;;;;;;;5014766;28;20461;-78
2024/01/29 06:17:33;;;;;;;10.88;5.90;;;;;;;;;;5031353;28;20372;-79
2024/01/29 06:19:59;;;;;;;10.65;6.07;;;;;;;;;;5025429;28;20034;-78
2024/01/29 06:22:25;;;;;;;9.77;5.75;;;;;;;;;;4997349;28;20099;-78
2024/01/29 06:24:51;;;;;;;12.68;5.90;;;;;;;;;;5018851;28;20458;-78
2024/01/29 06:27:17;;;;;;;8.50;5.70;;;;;;;;;;5032966;28;20121;-79
2024/01/29 06:29:43;;;;;;;10.48;5.82;;;;;;;;;;5029273;28;20526;-79
2024/01/29 06:32:09;;;;;;;10.27;5.93;;;;;;;;;;5032567;28;20049;-78
2024/01/29 06:34:36;;;;;;;10.48;6.20;;;;;;;;;;5033982;28;20049;-78
2024/01/29 06:37:02;;;;;;;11.70;5.97;;;;;;;;;;5032342;28;20410;-78
2024/01/29 06:39:28;;;;;;;9.50;5.63;;;;;;;;;;5032066;28;20072;-79
2024/01/29 06:41:54;;;;;;;11.13;6.55;;;;;;;;;;5033185;28;20380;-78
2024/01/29 06:44:20;;;;;;;10.75;5.97;;;;;;;;;;5032975;28;20096;-79
2024/01/29 06:46:46;;;;;;;9.43;5.93;;;;;;;;;;5033534;28;20053;-78
2024/01/29 06:49:26;;;;;;;12.35;6.20;;;;;;;;;;5033728;28;20053;-79
2024/01/29 06:51:52;;;;;;;10.30;6.10;;;;;;;;;;5032457;28;20041;-78
2024/01/29 06:54:18;;;;;;;11.90;6.20;;;;;;;;;;5032927;28;20053;-79
2024/01/29 06:56:44;;;;;;;11.02;5.80;;;;;;;;;;5033632;28;20046;-79
2024/01/29 06:59:11;;;;;;;10.05;5.95;;;;;;;;;;5031684;28;20400;-79
2024/01/29 07:01:37;;;;;;;10.75;6.18;;;;;;;;;;5033563;28;20407;-79
2024/01/29 07:04:03;;;;;;;11.80;6.70;;;;;;;;;;5032670;28;20080;-78
2024/01/29 07:06:30;;;;;;;10.43;5.63;;;;;;;;;;5032409;28;20056;-79
2024/01/29 07:08:56;;;;;;;10.63;5.80;;;;;;;;;;5021894;28;20060;-81
2024/01/29 07:11:22;;;;;;;8.85;5.70;;;;;;;;;;5037368;28;20053;-78
2024/01/29 07:13:48;;;;;;;11.63;6.18;;;;;;;;;;5033317;28;20037;-79
2024/01/29 07:16:14;;;;;;;9.07;5.25;;;;;;;;;;5032840;28;20050;-78
2024/01/29 07:18:40;;;;;;;11.00;5.68;;;;;;;;;;5014082;28;20088;-78
2024/01/29 07:21:06;;;;;;;9.60;6.13;;;;;;;;;;5032122;28;20052;-79
2024/01/29 07:23:33;;;;;;;12.35;6.65;;;;;;;;;;5031324;28;20045;-79
2024/01/29 07:25:59;;;;;;;9.75;6.10;;;;;;;;;;5021160;28;20399;-79
2024/01/29 07:28:25;;;;;;;12.20;6.55;;;;;;;;;;5032627;28;20117;-79
2024/01/29 07:30:51;;;;;;;10.43;6.20;;;;;;;;;;5014104;28;20049;-79
2024/01/29 07:33:17;;;;;;;9.88;5.85;;;;;;;;;;5032160;28;20517;-79
2024/01/29 07:35:43;;;;;;;10.23;6.15;;;;;;;;;;5032561;28;20089;-78
2024/01/29 07:38:09;;;;;;;9.25;5.43;;;;;;;;;;5032269;28;20558;-78
2024/01/29 07:40:35;;;;;;;11.32;6.10;;;;;;;;;;5032587;28;20408;-79
2024/01/29 07:43:02;;;;;;;8.88;5.93;;;;;;;;;;5032546;28;20079;-79
2024/01/29 07:45:28;;;;;;;10.68;5.97;;;;;;;;;;5031617;28;20470;-79
2024/01/29 07:47:55;;;;;;;10.48;6.45;;;;;;;;;;4998018;28;20037;-79
2024/01/29 07:50:21;;;;;;;11.18;6.50;;;;;;;;;;5001149;28;20060;-79
2024/01/29 07:52:47;;;;;;;9.32;5.55;;;;;;;;;;5024852;28;20136;-79
2024/01/29 07:55:13;;;;;;;10.52;5.90;;;;;;;;;;5042297;28;20052;-79
2024/01/29 07:57:39;;;;;;;9.15;6.35;;;;;;;;;;5036355;28;20060;-79
2024/01/29 08:00:05;;;;;;;9.80;6.07;;;;;;;;;;5037696;28;20053;-79
2024/01/29 08:02:31;;;;;;;11.23;6.30;;;;;;;;;;5036673;28;20126;-78
2024/01/29 08:04:58;;;;;;;8.80;5.72;;;;;;;;;;5036964;28;20116;-78
2024/01/29 08:07:24;;;;;;;10.52;5.88;;;;;;;;;;5039328;28;20046;-78
2024/01/29 08:09:50;;;;;;;12.55;7.07;;;;;;;;;;5037016;28;20115;-79
2024/01/29 08:12:16;;;;;;;11.13;6.53;;;;;;;;;;5036834;28;20049;-79
2024/01/29 08:14:42;;;;;;;9.70;5.85;;;;;;;;;;5019155;28;20054;-79
2024/01/29 08:17:08;;;;;;;10.38;6.03;;;;;;;;;;5036641;28;20049;-79
2024/01/29 08:19:34;;;;;;;9.57;6.00;;;;;;;;;;5036317;28;20063;-79
2024/01/29 08:22:00;;;;;;;12.80;6.72;;;;;;;;;;5039278;28;20188;-79
2024/01/29 08:24:26;;;;;;;9.77;5.93;;;;;;;;;;5039469;28;20056;-79
2024/01/29 08:26:53;;;;;;;10.25;5.97;;;;;;;;;;5039800;28;20046;-79
2024/01/29 08:29:20;;;;;;;10.52;6.78;;;;;;;;;;5042155;28;20050;-79
2024/01/29 08:31:46;;;;;;;9.38;6.38;;;;;;;;;;5038993;28;20142;-80
2024/01/29 08:34:12;;;;;;;12.68;6.13;;;;;;;;;;5019033;28;20040;-79
2024/01/29 08:36:38;;;;;;;11.98;6.10;;;;;;;;;;5041631;28;20046;-79
2024/01/29 08:39:04;;;;;;;10.40;6.50;;;;;;;;;;5039149;28;20067;-79
2024/01/29 08:41:30;;;;;;;11.18;6.10;;;;;;;;;;5039005;28;20481;-79
2024/01/29 08:43:56;;;;;;;10.30;6.65;;;;;;;;;;5056849;28;20425;-80
2024/01/29 08:46:22;;;;;;;10.50;6.22;;;;;;;;;;5037797;28;20049;-79
2024/01/29 08:48:48;;;;;;;9.95;6.68;;;;;;;;;;5039147;28;20048;-81
2024/01/29 08:51:14;;;;;;;10.77;6.50;;;;;;;;;;5022513;28;20080;-78
2024/01/29 08:53:40;;;;;;;9.52;5.95;;;;;;;;;;5037487;28;20162;-78
2024/01/29 08:56:07;;;;;;;11.27;6.07;;;;;;;;;;5036017;28;20113;-79
2024/01/29 08:58:34;;;;;;;10.25;6.30;;;;;;;;;;5036966;28;20052;-77
2024/01/29 09:01:02;;;;;;;9.40;6.50;;;;;;;;;;5035005;28;20053;-78
2024/01/29 09:03:28;;;;;;;9.52;6.18;;;;;;;;;;5017888;28;20080;-78
2024/01/29 09:05:54;;;;;;;9.45;6.38;;;;;;;;;;5035787;28;21203;-77
2024/01/29 09:08:22;;;;;;;9.68;6.03;;;;;;;;;;5035130;28;20046;-78
2024/01/29 09:10:48;;;;;;;11.20;6.70;;;;;;;;;;5038791;28;20064;-80
2024/01/29 09:13:14;;;;;;;9.60;6.35;;;;;;;;;;5039491;28;20058;-78
2024/01/29 09:15:40;;;;;;;10.95;6.20;;;;;;;;;;5034252;28;20049;-79
2024/01/29 09:18:06;;;;;;;12.07;7.25;;;;;;;;;;5033850;28;20048;-80
2024/01/29 09:20:32;;;;;;;10.23;6.65;;;;;;;;;;5034380;28;20437;-79
2024/01/29 09:22:58;;;;;;;11.82;6.68;;;;;;;;;;5035108;28;20064;-79
2024/01/29 09:25:25;;;;;;;9.27;6.50;;;;;;;;;;5035598;28;20124;-79
2024/01/29 09:27:51;;;;;;;12.13;7.13;;;;;;;;;;5030070;28;20088;-79
2024/01/29 09:30:17;;;;;;;11.10;7.18;;;;;;;;;;5034617;28;20573;-78
2024/01/29 09:32:43;;;;;;;9.75;6.43;;;;;;;;;;5035683;28;20403;-79
2024/01/29 09:35:10;;;;;;;11.25;7.53;;;;;;;;;;5032984;28;20057;-78
2024/01/29 09:37:38;;;;;;;10.43;6.90;;;;;;;;;;5034602;28;20383;-79
2024/01/29 09:40:05;;;;;;;10.85;7.63;;;;;;;;;;5030761;28;20041;-79
2024/01/29 09:42:34;;;;;;;10.15;6.70;;;;;;;;;;5034650;28;20083;-79
2024/01/29 09:45:00;;;;;;;12.15;7.00;;;;;;;;;;5030980;28;20357;-79
2024/01/29 09:47:26;;;;;;;11.32;7.35;;;;;;;;;;5033963;28;20050;-79
2024/01/29 09:49:53;;;;;;;11.23;7.53;;;;;;;;;;5034186;28;20571;-79
2024/01/29 09:52:20;;;;;;;13.63;7.85;;;;;;;;;;5037659;28;20050;-80
2024/01/29 09:54:47;;;;;;;11.93;7.40;;;;;;;;;;5037541;28;20068;-79
2024/01/29 09:57:15;;;;;;;11.52;7.38;;;;;;;;;;5037803;28;20511;-79
2024/01/29 09:59:41;;;;;;;10.30;7.15;;;;;;;;;;5017536;28;20041;-79
2024/01/29 10:02:09;;;;;;;12.50;8.07;;;;;;;;;;5022319;28;20045;-79
2024/01/29 10:04:35;;;;;;;12.65;7.68;;;;;;;;;;5036246;28;20125;-79
2024/01/29 10:07:01;;;;;;;11.63;7.05;;;;;;;;;;5035923;28;20049;-79
2024/01/29 10:09:29;;;;;;;15.75;7.68;;;;;;;;;;5041167;28;20499;-80
2024/01/29 10:11:55;;;;;;;12.88;7.93;;;;;;;;;;5036082;28;20056;-80
2024/01/29 10:14:21;;;;;;;14.50;8.18;;;;;;;;;;5036659;28;20329;-79
2024/01/29 10:16:48;;;;;;;11.10;7.90;;;;;;;;;;5035157;28;20042;-80
2024/01/29 10:19:14;;;;;;;11.05;7.30;;;;;;;;;;5029764;28;20085;-79
2024/01/29 10:21:43;;;;;;;11.55;7.75;;;;;;;;;;5030068;28;20049;-79
2024/01/29 10:24:18;;;;;;;12.35;8.18;;;;;;;;;;5021767;28;20455;-80
2024/01/29 10:26:45;;;;;;;13.93;7.50;;;;;;;;;;5034078;28;20060;-80
2024/01/29 10:29:12;;;;;;;12.57;8.15;;;;;;;;;;5019771;28;20053;-79
2024/01/29 10:31:38;;;;;;;13.02;8.57;;;;;;;;;;5040141;28;20131;-80
2024/01/29 10:34:05;;;;;;;11.10;7.95;;;;;;;;;;5022123;28;20045;-80
2024/01/29 10:36:32;;;;;;;13.82;8.63;;;;;;;;;;5021029;28;20072;-80
2024/01/29 10:39:03;;;;;;;12.65;8.05;;;;;;;;;;5039200;28;20100;-79
2024/01/29 10:41:31;;;;;;;13.55;8.63;;;;;;;;;;5039715;28;20045;-79
2024/01/29 10:44:00;;;;;;;11.85;8.13;;;;;;;;;;5031969;28;20072;-80
2024/01/29 10:46:28;;;;;;;11.50;8.65;;;;;;;;;;5036943;28;20434;-80
2024/01/29 10:48:55;;;;;;;12.73;8.10;;;;;;;;;;5033813;28;20089;-79
2024/01/29 10:51:22;;;;;;;13.73;8.73;;;;;;;;;;5039338;28;20053;-80
2024/01/29 10:53:48;;;;;;;11.55;7.90;;;;;;;;;;5036315;28;20053;-80
2024/01/29 10:56:16;;;;;;;11.63;8.23;;;;;;;;;;5032436;28;20045;-79
2024/01/29 10:58:42;;;;;;;13.57;9.20;;;;;;;;;;5020047;28;20084;-80
2024/01/29 11:01:10;;;;;;;14.38;8.65;;;;;;;;;;5039635;28;20484;-79
2024/01/29 11:03:37;;;;;;;13.52;8.82;;;;;;;;;;5040016;28;20045;-79
2024/01/29 11:06:14;;;;;;;11.52;8.60;;;;;;;;;;5040277;28;20045;-79
2024/01/29 11:08:42;;;;;;;12.50;8.65;;;;;;;;;;5045613;28;20476;-79
2024/01/29 11:11:10;;;;;;;12.25;8.75;;;;;;;;;;5039846;28;20061;-79
2024/01/29 11:13:36;;;;;;;11.18;8.80;;;;;;;;;;5040182;28;20103;-79
2024/01/29 11:16:03;;;;;;;16.33;9.15;;;;;;;;;;5040261;28;20049;-79
2024/01/29 11:18:35;;;;;;;12.57;8.50;;;;;;;;;;5037813;28;20372;-79
2024/01/29 11:21:02;;;;;;;14.52;9.18;;;;;;;;;;5039351;28;20435;-79
2024/01/29 11:23:28;;;;;;;12.18;8.55;;;;;;;;;;5043997;28;20051;-79
2024/01/29 11:25:59;;;;;;;12.55;8.75;;;;;;;;;;5040815;28;20076;-79
2024/01/29 11:28:28;;;;;;;14.35;9.70;;;;;;;;;;5040645;28;20041;-79
2024/01/29 11:30:54;;;;;;;19.08;9.93;;;;;;;;;;5034251;28;20129;-79
2024/01/29 11:33:21;;;;;;;14.80;9.05;;;;;;;;;;5028547;28;20518;-79
2024/01/29 11:35:55;;;;;;;13.38;9.10;;;;;;;;;;5029143;28;20058;-80
2024/01/29 11:38:22;;;;;;;16.00;10.18;;;;;;;;;;5021391;28;20054;-80
2024/01/29 11:40:48;;;;;;;11.20;8.68;;;;;;;;;;5020851;28;20061;-80
2024/01/29 11:43:18;;;;;;;14.43;9.90;;;;;;;;;;5039861;28;20493;-79
2024/01/29 11:45:48;;;;;;;15.82;9.85;;;;;;;;;;5038267;28;20068;-80
2024/01/29 11:48:18;;;;;;;15.77;10.07;;;;;;;;;;5028634;28;20050;-80
2024/01/29 11:50:48;;;;;;;15.25;9.85;;;;;;;;;;5020241;28;20085;-80
2024/01/29 11:53:15;;;;;;;13.45;9.95;;;;;;;;;;5003910;28;20112;-79
2024/01/29 11:55:42;;;;;;;14.07;10.10;;;;;;;;;;5022062;28;20065;-79
2024/01/29 11:58:13;;;;;;;14.57;9.40;;;;;;;;;;5032964;28;20494;-80
2024/01/29 12:00:39;;;;;;;19.40;11.82;;;;;;;;;;5038675;28;20056;-79
2024/01/29 12:03:05;;;;;;;15.65;11.23;;;;;;;;;;5021366;28;20045;-79
2024/01/29 12:05:31;;;;;;;15.32;10.95;;;;;;;;;;5034295;28;20053;-79
2024/01/29 12:07:58;;;;;;;15.65;10.73;;;;;;;;;;5038329;28;20033;-79
2024/01/29 12:10:24;;;;;;;14.65;10.85;;;;;;;;;;5036603;28;20057;-79
2024/01/29 12:12:50;;;;;;;14.57;10.73;;;;;;;;;;5026038;28;20056;-79
2024/01/29 12:15:16;;;;;;;14.57;11.13;;;;;;;;;;5037562;28;20045;-79
2024/01/29 12:17:44;;;;;;;15.98;11.48;;;;;;;;;;5019796;28;20053;-79
2024/01/29 12:20:11;;;;;;;14.77;10.77;;;;;;;;;;5019412;28;20045;-80
2024/01/29 12:22:40;;;;;;;13.65;11.07;;;;;;;;;;5033001;28;20037;-79
2024/01/29 12:25:08;;;;;;;15.35;11.25;;;;;;;;;;5031914;28;20431;-80
2024/01/29 12:27:34;;;;;;;18.25;11.82;;;;;;;;;;5032419;28;20109;-80
2024/01/29 12:30:04;;;;;;;16.60;11.90;;;;;;;;;;5030691;28;20057;-80
2024/01/29 12:32:32;;;;;;;15.23;11.68;;;;;;;;;;5035111;28;20103;-80
2024/01/29 12:34:58;;;;;;;16.85;12.15;;;;;;;;;;5035949;28;20065;-80
2024/01/29 12:37:25;;;;;;;17.40;11.57;;;;;;;;;;5037151;28;20065;-80
2024/01/29 12:39:55;;;;;;;17.75;11.52;;;;;;;;;;5037726;28;20049;-80
2024/01/29 12:42:22;;;;;;;16.65;12.10;;;;;;;;;;5038453;28;20095;-80
2024/01/29 12:44:50;;;;;;;14.88;11.73;;;;;;;;;;5040767;28;20131;-80
2024/01/29 12:47:17;;;;;;;22.15;13.02;;;;;;;;;;5024270;28;20045;-80
2024/01/29 12:49:43;;;;;;;17.20;12.05;;;;;;;;;;5030375;28;20056;-80
2024/01/29 12:52:10;;;;;;;18.35;12.50;;;;;;;;;;5042398;28;20041;-81
2024/01/29 12:54:36;;;;;;;17.67;13.05;;;;;;;;;;5039191;28;20058;-80
2024/01/29 12:57:03;;;;;;;19.83;13.15;;;;;;;;;;5037573;28;20045;-81
2024/01/29 12:59:29;;;;;;;21.67;13.98;;;;;;;;;;5023382;28;20068;-81
2024/01/29 13:01:55;;;;;;;21.50;13.90;;;;;;;;;;5041961;28;20041;-80
2024/01/29 13:04:21;;;;;;;19.95;14.18;;;;;;;;;;5041089;28;20045;-80
2024/01/29 13:06:47;;;;;;;20.70;13.07;;;;;;;;;;5042078;28;20089;-80
2024/01/29 13:09:14;;;;;;;23.17;15.27;;;;;;;;;;5041090;28;20060;-80
2024/01/29 13:11:40;;;;;;;23.55;13.57;;;;;;;;;;5041383;28;20093;-80
2024/01/29 13:14:06;;;;;;;19.65;14.30;;;;;;;;;;5038700;28;20080;-80
2024/01/29 13:16:32;;;;;;;20.67;14.18;;;;;;;;;;5052747;28;20042;-80
2024/01/29 13:18:58;;;;;;;19.10;13.60;;;;;;;;;;5041746;28;20056;-80
2024/01/29 13:21:24;;;;;;;21.65;13.05;;;;;;;;;;5038101;28;20041;-80
2024/01/29 13:23:50;;;;;;;22.70;13.50;;;;;;;;;;5041050;28;20059;-80
2024/01/29 13:26:16;;;;;;;21.98;14.40;;;;;;;;;;5041407;28;20144;-80
2024/01/29 13:28:42;;;;;;;23.55;15.32;;;;;;;;;;5045943;28;20048;-80
2024/01/29 13:31:09;;;;;;;20.92;13.93;;;;;;;;;;5042800;28;20057;-80
2024/01/29 13:33:35;;;;;;;22.30;15.02;;;;;;;;;;5040618;28;20085;-80
2024/01/29 13:36:02;;;;;;;21.35;13.82;;;;;;;;;;5023494;28;20057;-80
2024/01/29 13:38:28;;;;;;;19.27;14.32;;;;;;;;;;5041174;28;20045;-80
2024/01/29 13:40:54;;;;;;;23.65;14.65;;;;;;;;;;5034219;28;20045;-80
2024/01/29 13:43:21;;;;;;;20.05;13.80;;;;;;;;;;5037624;28;20046;-80
2024/01/29 13:45:47;;;;;;;24.35;14.48;;;;;;;;;;5034915;28;20057;-80
2024/01/29 13:48:13;;;;;;;26.00;16.15;;;;;;;;;;5040731;28;20092;-80
2024/01/29 13:50:39;;;;;;;21.40;13.93;;;;;;;;;;5039795;28;20049;-81
2024/01/29 13:53:06;;;;;;;24.60;14.95;;;;;;;;;;5037269;28;20076;-80
2024/01/29 13:55:32;;;;;;;22.05;14.15;;;;;;;;;;5035252;28;20403;-81
2024/01/29 13:57:58;;;;;;;22.77;13.52;;;;;;;;;;5018095;28;20101;-80
2024/01/29 14:00:24;;;;;;;17.63;13.43;;;;;;;;;;5036797;28;20041;-81
2024/01/29 14:02:51;;;;;;;17.17;13.15;;;;;;;;;;5035683;28;20057;-80
2024/01/29 14:05:17;;;;;;;17.30;12.75;;;;;;;;;;5037177;28;20491;-80
2024/01/29 14:07:43;;;;;;;18.42;12.80;;;;;;;;;;5040733;28;20037;-80
2024/01/29 14:10:11;;;;;;;18.42;13.63;;;;;;;;;;5037774;28;20053;-81
2024/01/29 14:12:37;;;;;;;18.35;12.98;;;;;;;;;;5039999;28;20057;-80
2024/01/29 14:15:04;;;;;;;18.27;13.48;;;;;;;;;;5030543;28;20145;-80
2024/01/29 14:17:30;;;;;;;17.98;12.52;;;;;;;;;;5037698;28;20046;-80
2024/01/29 14:19:57;;;;;;;21.17;13.48;;;;;;;;;;5042635;28;20395;-80
2024/01/29 14:22:23;;;;;;;18.80;13.63;;;;;;;;;;5037739;28;20054;-81
2024/01/29 14:24:50;;;;;;;19.00;13.15;;;;;;;;;;5039529;28;20494;-81
2024/01/29 14:27:16;;;;;;;18.55;12.90;;;;;;;;;;5039597;28;20073;-81
2024/01/29 14:29:42;;;;;;;20.25;13.25;;;;;;;;;;5038253;28;20051;-80